Time;durP1;ratioP1;P1;durP2;ratioP2;P2;SDS_P1;SDS_P2;PMS_P1;PMS_P2;Temp;Humidity;BMP_temperature;BMP_pressure;BME280_temperature;BME280_humidity;BME280_pressure;Samples;Min_cycle;Max_cycle;Signal;HPM_P1;HPM_P2
2021/08/16 00:01:56;;;;;;;9.40;2.42;;;;;;;18.27;63.10;100825.88;5008542;28;20049;-73
2021/08/16 00:04:21;;;;;;;9.38;2.45;;;;;;;18.11;62.38;100818.47;5000031;28;20034;-74
2021/08/16 00:06:47;;;;;;;10.05;1.90;;;;;;;18.08;62.61;100825.72;4988027;28;20030;-73
2021/08/16 00:09:12;;;;;;;5.18;1.98;;;;;;;18.00;62.58;100825.94;4980939;28;20259;-75
2021/08/16 00:11:39;;;;;;;6.28;1.30;;;;;;;17.85;62.19;100823.53;5000583;28;20159;-73
2021/08/16 00:14:05;;;;;;;11.02;2.63;;;;;;;17.90;61.94;100818.47;4983704;28;20030;-74
2021/08/16 00:16:31;;;;;;;8.70;1.60;;;;;;;17.83;62.01;100819.47;5007619;28;20029;-76
2021/08/16 00:18:57;;;;;;;11.40;2.08;;;;;;;17.69;62.21;100818.69;5005629;28;20034;-73
2021/08/16 00:21:22;;;;;;;12.70;2.20;;;;;;;17.61;62.44;100822.31;4984568;28;20217;-72
2021/08/16 00:23:48;;;;;;;7.22;2.22;;;;;;;17.60;63.21;100817.28;5001449;28;20057;-76
2021/08/16 00:26:14;;;;;;;8.68;2.55;;;;;;;17.50;62.81;100820.31;4979355;28;20041;-74
2021/08/16 00:28:39;;;;;;;9.80;1.58;;;;;;;17.50;62.83;100826.34;5007919;28;20503;-73
2021/08/16 00:31:05;;;;;;;6.85;1.70;;;;;;;17.43;63.29;100827.34;4999397;28;20040;-74
2021/08/16 00:33:32;;;;;;;5.47;1.83;;;;;;;17.42;63.67;100818.69;4974081;28;20041;-75
2021/08/16 00:35:58;;;;;;;7.88;2.05;;;;;;;17.49;63.29;100809.00;5003417;28;20048;-74
2021/08/16 00:38:23;;;;;;;8.32;1.95;;;;;;;17.54;62.86;100811.03;4999723;28;20531;-73
2021/08/16 00:40:49;;;;;;;8.55;2.40;;;;;;;17.48;63.02;100807.38;4996711;28;20210;-73
2021/08/16 00:43:14;;;;;;;6.28;1.55;;;;;;;17.28;63.50;100804.75;4989313;28;20044;-73
2021/08/16 00:45:40;;;;;;;8.73;1.65;;;;;;;17.25;63.45;100810.41;4996024;28;20032;-75
2021/08/16 00:48:06;;;;;;;6.72;2.10;;;;;;;17.25;63.32;100806.94;4990711;28;20443;-74
2021/08/16 00:50:32;;;;;;;8.32;1.60;;;;;;;17.30;63.38;100809.78;4980124;28;20049;-75
2021/08/16 00:52:57;;;;;;;7.13;2.17;;;;;;;17.31;63.42;100808.78;5001895;28;20029;-74
2021/08/16 00:55:23;;;;;;;8.57;1.88;;;;;;;17.34;63.26;100811.00;5004435;28;20057;-74
2021/08/16 00:57:48;;;;;;;5.72;1.70;;;;;;;17.29;63.63;100798.50;5014522;28;20528;-73
2021/08/16 01:00:14;;;;;;;4.22;1.50;;;;;;;17.18;64.08;100811.38;4994110;28;20042;-75
2021/08/16 01:02:42;;;;;;;9.75;2.03;;;;;;;17.22;64.03;100815.22;4991126;28;20274;-73
2021/08/16 01:05:11;;;;;;;4.53;1.58;;;;;;;17.13;64.52;100812.78;4991594;28;20060;-74
2021/08/16 01:07:36;;;;;;;7.18;1.92;;;;;;;17.08;64.43;100811.75;4987124;28;20042;-73
2021/08/16 01:10:03;;;;;;;12.80;2.92;;;;;;;17.07;64.65;100813.59;4983873;28;20041;-73
2021/08/16 01:12:31;;;;;;;6.97;1.88;;;;;;;16.99;65.09;100815.56;4985617;28;20457;-73
2021/08/16 01:14:56;;;;;;;8.85;2.10;;;;;;;17.03;64.65;100808.94;4981244;28;20039;-73
2021/08/16 01:17:22;;;;;;;9.43;2.10;;;;;;;16.98;64.83;100811.34;5001857;28;20484;-74
2021/08/16 01:19:49;;;;;;;8.98;1.70;;;;;;;16.93;65.13;100811.91;4997106;28;20335;-72
2021/08/16 01:22:14;;;;;;;7.82;2.15;;;;;;;16.90;65.31;100804.47;4976725;28;20475;-74
2021/08/16 01:24:41;;;;;;;6.63;1.88;;;;;;;16.91;65.21;100808.69;4994983;28;20034;-74
2021/08/16 01:27:11;;;;;;;8.20;2.17;;;;;;;16.95;65.48;100807.28;4992409;28;21530;-73
2021/08/16 01:29:38;;;;;;;11.18;2.50;;;;;;;16.86;65.46;100816.38;4979998;28;20046;-74
2021/08/16 01:32:05;;;;;;;9.20;1.77;;;;;;;16.86;65.24;100814.53;4989908;28;20211;-74
2021/08/16 01:34:31;;;;;;;6.47;1.63;;;;;;;16.94;65.40;100818.78;4981920;28;20343;-74
2021/08/16 01:36:57;;;;;;;11.48;3.22;;;;;;;16.85;65.79;100814.72;5012981;28;20030;-73
2021/08/16 01:39:23;;;;;;;11.48;2.63;;;;;;;16.83;66.51;100816.75;4993104;28;20065;-74
2021/08/16 01:41:49;;;;;;;8.45;1.85;;;;;;;16.83;66.42;100812.31;5000122;28;20424;-74
2021/08/16 01:44:19;;;;;;;8.10;2.33;;;;;;;16.75;66.26;100812.47;5002139;28;20061;-73
2021/08/16 01:46:45;;;;;;;10.73;2.83;;;;;;;16.72;66.48;100808.41;5004590;28;20025;-74
2021/08/16 01:49:11;;;;;;;8.73;2.67;;;;;;;16.67;67.02;100800.34;5003943;28;20057;-74
2021/08/16 01:51:37;;;;;;;10.18;2.17;;;;;;;16.62;66.97;100807.97;4984316;28;20459;-73
2021/08/16 01:54:04;;;;;;;7.10;2.67;;;;;;;16.62;67.13;100800.13;5009823;28;20464;-73
2021/08/16 01:56:30;;;;;;;10.60;2.20;;;;;;;16.53;67.26;100804.72;5003124;28;20030;-73
2021/08/16 01:58:55;;;;;;;10.55;2.88;;;;;;;16.57;67.28;100801.72;5004691;28;20447;-72
2021/08/16 02:01:21;;;;;;;12.15;2.75;;;;;;;16.52;67.92;100799.69;4995003;28;20048;-75
2021/08/16 02:03:46;;;;;;;9.80;2.42;;;;;;;16.49;67.67;100802.69;4998436;28;20033;-74
2021/08/16 02:06:14;;;;;;;13.23;2.28;;;;;;;16.50;67.32;100799.88;4993076;28;20045;-75
2021/08/16 02:08:40;;;;;;;9.60;2.13;;;;;;;16.40;67.96;100796.81;4998022;28;20029;-73
2021/08/16 02:11:05;;;;;;;10.18;2.10;;;;;;;16.50;67.81;100794.66;5013140;28;20033;-76
2021/08/16 02:13:31;;;;;;;10.50;2.47;;;;;;;16.40;67.85;100794.19;5010693;28;20529;-73
2021/08/16 02:15:56;;;;;;;7.90;2.05;;;;;;;16.39;68.15;100792.59;5004617;28;20033;-77
2021/08/16 02:18:22;;;;;;;10.52;2.80;;;;;;;16.37;68.65;100791.16;5009960;28;20627;-72
2021/08/16 02:20:47;;;;;;;14.25;3.08;;;;;;;16.36;68.20;100798.19;4997796;28;20038;-72
2021/08/16 02:23:13;;;;;;;10.45;2.53;;;;;;;16.27;68.29;100794.91;5013452;28;20215;-75
2021/08/16 02:25:38;;;;;;;9.23;2.30;;;;;;;16.28;68.52;100798.38;4993760;28;20038;-73
2021/08/16 02:28:04;;;;;;;11.25;2.47;;;;;;;16.16;68.74;100800.69;5005455;28;20029;-74
2021/08/16 02:30:30;;;;;;;10.60;2.35;;;;;;;16.28;68.39;100795.75;4998559;28;20050;-75
2021/08/16 02:32:55;;;;;;;10.23;2.42;;;;;;;16.23;68.51;100793.69;5008912;28;20434;-74
2021/08/16 02:35:21;;;;;;;13.63;2.42;;;;;;;16.20;68.66;100798.50;5001258;28;20813;-73
2021/08/16 02:37:46;;;;;;;16.05;2.95;;;;;;;16.25;68.59;100791.69;4997004;28;20096;-74
2021/08/16 02:40:13;;;;;;;11.15;2.55;;;;;;;16.25;69.04;100791.69;5003207;28;20038;-72
2021/08/16 02:42:39;;;;;;;14.07;2.78;;;;;;;16.24;68.55;100790.09;5002490;28;20041;-73
2021/08/16 02:45:06;;;;;;;11.93;2.80;;;;;;;16.25;68.65;100799.53;4989347;28;20036;-73
2021/08/16 02:47:31;;;;;;;11.48;2.90;;;;;;;16.25;68.97;100796.13;5007545;28;20060;-73
2021/08/16 02:49:57;;;;;;;11.07;2.75;;;;;;;16.28;68.60;100790.53;4998264;28;20323;-72
2021/08/16 02:52:22;;;;;;;13.63;2.78;;;;;;;16.20;69.09;100796.72;4992311;28;20045;-73
2021/08/16 02:54:48;;;;;;;9.35;3.53;;;;;;;16.13;69.48;100795.88;5001981;28;20034;-73
2021/08/16 02:57:13;;;;;;;8.98;3.25;;;;;;;16.18;69.80;100785.66;5010108;28;20037;-73
2021/08/16 02:59:39;;;;;;;21.90;4.43;;;;;;;16.20;69.33;100790.66;4994081;28;20733;-73
2021/08/16 03:02:06;;;;;;;16.20;3.17;;;;;;;16.10;69.86;100781.34;4994338;28;20060;-73
2021/08/16 03:04:32;;;;;;;10.40;3.15;;;;;;;16.13;69.98;100782.78;5000486;28;20092;-74
2021/08/16 03:06:57;;;;;;;7.55;2.60;;;;;;;16.20;69.65;100778.41;4999745;28;20392;-73
2021/08/16 03:09:27;;;;;;;17.60;2.63;;;;;;;16.18;69.79;100776.97;4989193;28;20049;-72
2021/08/16 03:11:53;;;;;;;13.05;3.67;;;;;;;16.16;69.63;100771.91;4991102;28;20117;-73
2021/08/16 03:14:18;;;;;;;14.52;3.05;;;;;;;16.18;69.94;100767.34;4989790;28;20040;-73
2021/08/16 03:16:44;;;;;;;15.80;4.00;;;;;;;16.24;69.71;100765.75;4985839;28;20419;-73
2021/08/16 03:19:09;;;;;;;12.25;3.50;;;;;;;16.15;70.45;100765.88;4985607;28;20026;-73
2021/08/16 03:21:35;;;;;;;17.02;4.95;;;;;;;16.12;70.29;100762.84;5003450;28;20638;-73
2021/08/16 03:24:01;;;;;;;14.52;3.80;;;;;;;16.21;69.84;100761.69;4992166;28;20038;-73
2021/08/16 03:26:26;;;;;;;11.73;2.90;;;;;;;16.14;70.09;100763.47;4990037;28;20439;-74
2021/08/16 03:28:52;;;;;;;11.95;3.08;;;;;;;16.21;70.13;100763.50;4991122;28;20026;-73
2021/08/16 03:31:17;;;;;;;10.55;2.90;;;;;;;16.23;70.17;100767.53;4985502;28;20029;-74
2021/08/16 03:33:43;;;;;;;14.75;3.60;;;;;;;16.17;70.58;100764.91;4995579;28;20025;-73
2021/08/16 03:36:08;;;;;;;14.50;3.17;;;;;;;16.13;70.43;100767.09;4993545;28;20034;-73
2021/08/16 03:38:35;;;;;;;7.22;2.35;;;;;;;16.09;70.87;100765.88;5001199;28;20048;-73
2021/08/16 03:41:01;;;;;;;10.48;3.60;;;;;;;16.18;70.73;100769.94;5010450;28;20049;-73
2021/08/16 03:43:26;;;;;;;14.75;4.25;;;;;;;16.20;70.74;100769.72;4982737;28;20060;-77
2021/08/16 03:45:52;;;;;;;11.82;2.78;;;;;;;16.20;70.46;100769.72;4989510;28;20110;-73
2021/08/16 03:48:18;;;;;;;10.45;3.05;;;;;;;16.12;70.77;100765.47;5003635;28;20077;-73
2021/08/16 03:50:44;;;;;;;14.02;3.15;;;;;;;16.07;71.09;100770.50;4981193;28;20111;-74
2021/08/16 03:53:09;;;;;;;9.98;2.88;;;;;;;16.13;71.03;100778.34;4984987;28;20038;-73
2021/08/16 03:55:35;;;;;;;15.98;4.30;;;;;;;16.04;71.26;100774.28;4991823;28;20033;-75
2021/08/16 03:58:00;;;;;;;14.27;2.90;;;;;;;16.00;72.22;100767.03;4999436;28;20363;-74
2021/08/16 04:00:26;;;;;;;6.80;2.30;;;;;;;15.97;72.02;100762.97;5005365;28;20534;-73
2021/08/16 04:02:51;;;;;;;12.90;3.45;;;;;;;15.98;71.97;100764.59;4991786;28;20042;-73
2021/08/16 04:05:17;;;;;;;12.10;3.35;;;;;;;16.10;71.64;100763.03;4988426;28;20030;-73
2021/08/16 04:07:44;;;;;;;10.15;2.80;;;;;;;16.08;72.01;100759.81;5016360;28;20033;-73
2021/08/16 04:10:11;;;;;;;14.38;3.47;;;;;;;16.15;71.29;100767.72;4998659;28;20036;-72
2021/08/16 04:12:36;;;;;;;18.75;2.33;;;;;;;16.03;72.03;100769.25;4990158;28;20034;-74
2021/08/16 04:15:03;;;;;;;17.75;3.33;;;;;;;16.07;72.18;100765.25;4985540;28;20026;-71
2021/08/16 04:17:29;;;;;;;9.27;2.78;;;;;;;16.01;73.07;100772.06;4984326;28;20030;-74
2021/08/16 04:19:55;;;;;;;10.98;2.35;;;;;;;15.96;72.78;100772.63;4998237;28;20452;-73
2021/08/16 04:22:20;;;;;;;21.52;3.53;;;;;;;16.02;72.60;100768.44;4996268;28;20072;-74
2021/08/16 04:24:46;;;;;;;12.32;2.80;;;;;;;16.07;72.47;100768.69;4976844;28;20064;-73
2021/08/16 04:27:11;;;;;;;11.77;2.75;;;;;;;16.03;72.67;100771.84;4999284;28;20049;-74
2021/08/16 04:29:37;;;;;;;13.52;2.67;;;;;;;16.12;72.64;100768.09;5002549;28;20076;-75
2021/08/16 04:32:03;;;;;;;14.90;2.88;;;;;;;16.05;72.75;100768.06;4980539;28;20038;-73
2021/08/16 04:34:28;;;;;;;10.80;2.70;;;;;;;16.04;72.77;100766.44;5009931;28;20034;-73
2021/08/16 04:36:54;;;;;;;10.82;2.40;;;;;;;16.14;73.01;100768.69;4984477;28;20083;-73
2021/08/16 04:39:19;;;;;;;9.32;2.58;;;;;;;16.13;72.96;100767.91;4985699;28;20029;-75
2021/08/16 04:41:44;;;;;;;12.60;2.83;;;;;;;16.11;73.16;100767.28;5001744;28;20044;-74
2021/08/16 04:44:10;;;;;;;12.13;2.58;;;;;;;16.19;72.62;100778.59;4990350;28;20038;-73
2021/08/16 04:46:35;;;;;;;10.95;2.88;;;;;;;16.14;72.72;100774.75;5009465;28;20030;-73
2021/08/16 04:49:01;;;;;;;17.40;3.22;;;;;;;16.22;72.52;100786.88;5007759;28;20432;-72
2021/08/16 04:51:27;;;;;;;11.35;3.03;;;;;;;16.23;72.66;100772.78;5009015;28;20030;-73
2021/08/16 04:53:52;;;;;;;15.00;2.88;;;;;;;16.21;72.59;100776.59;5009982;28;20036;-73
2021/08/16 04:56:18;;;;;;;15.60;3.17;;;;;;;16.14;72.87;100780.00;4991669;28;20677;-72
2021/08/16 04:58:43;;;;;;;18.90;3.33;;;;;;;16.05;73.31;100781.13;5001661;28;20695;-74
2021/08/16 05:01:09;;;;;;;14.90;4.03;;;;;;;16.08;73.45;100782.56;4995823;28;20038;-73
2021/08/16 05:03:34;;;;;;;11.55;2.75;;;;;;;16.18;73.49;100788.25;4994457;28;20022;-75
2021/08/16 05:06:05;;;;;;;14.73;2.50;;;;;;;16.25;73.08;100788.28;4981771;28;20034;-73
2021/08/16 05:08:30;;;;;;;19.83;4.22;;;;;;;16.17;73.45;100784.00;4993136;28;20026;-74
2021/08/16 05:10:55;;;;;;;12.13;2.95;;;;;;;16.24;73.22;100786.69;5006503;28;20372;-72
2021/08/16 05:13:21;;;;;;;11.85;2.72;;;;;;;16.20;73.00;100783.63;5006012;28;20438;-73
2021/08/16 05:15:47;;;;;;;16.55;2.53;;;;;;;16.13;73.55;100790.63;4965387;28;20027;-72
2021/08/16 05:18:12;;;;;;;14.20;2.92;;;;;;;16.08;73.72;100788.59;5007047;28;20416;-72
2021/08/16 05:20:39;;;;;;;10.68;2.65;;;;;;;16.09;73.95;100787.59;4999052;28;20034;-72
2021/08/16 05:23:05;;;;;;;13.52;2.70;;;;;;;16.15;73.63;100778.16;4993072;28;20275;-74
2021/08/16 05:25:30;;;;;;;16.50;3.45;;;;;;;16.18;73.71;100790.03;4985587;28;20019;-74
2021/08/16 05:27:56;;;;;;;9.20;2.90;;;;;;;16.18;73.74;100790.03;4984824;28;20034;-73
2021/08/16 05:30:22;;;;;;;11.68;2.95;;;;;;;16.11;73.98;100785.59;4977352;28;20038;-73
2021/08/16 05:32:47;;;;;;;16.75;3.13;;;;;;;16.08;74.15;100790.41;5005659;28;20023;-71
2021/08/16 05:35:14;;;;;;;13.93;3.55;;;;;;;16.15;74.00;100783.41;4984192;28;20038;-72
2021/08/16 05:37:39;;;;;;;13.93;2.40;;;;;;;16.18;73.70;100783.03;5000713;28;20021;-75
2021/08/16 05:40:06;;;;;;;12.27;2.47;;;;;;;16.14;73.98;100773.94;5012495;28;20033;-74
2021/08/16 05:42:31;;;;;;;13.90;2.80;;;;;;;16.10;74.08;100783.97;5008234;28;20184;-73
2021/08/16 05:44:57;;;;;;;15.05;3.03;;;;;;;16.10;74.41;100797.03;4997176;28;20034;-74
2021/08/16 05:47:22;;;;;;;9.95;2.17;;;;;;;16.15;74.16;100792.03;4987620;28;20376;-75
2021/08/16 05:49:48;;;;;;;12.30;3.17;;;;;;;16.27;73.48;100788.88;4999283;28;20384;-73
2021/08/16 05:52:13;;;;;;;16.02;3.00;;;;;;;16.26;73.90;100795.13;4976555;28;20491;-73
2021/08/16 05:54:39;;;;;;;11.52;2.47;;;;;;;16.29;73.43;100790.34;5004558;28;20415;-73
2021/08/16 05:57:04;;;;;;;15.95;2.38;;;;;;;16.31;73.42;100790.94;4991131;28;20483;-74
2021/08/16 05:59:30;;;;;;;8.32;2.60;;;;;;;16.23;73.95;100787.66;4994983;28;20085;-73
2021/08/16 06:01:55;;;;;;;11.02;2.50;;;;;;;16.26;73.66;100793.31;5001768;28;20038;-74
2021/08/16 06:04:21;;;;;;;9.65;2.33;;;;;;;16.31;73.93;100790.13;4978318;28;20029;-73
2021/08/16 06:06:46;;;;;;;11.98;2.45;;;;;;;16.37;73.64;100791.97;4997680;28;20419;-75
2021/08/16 06:09:12;;;;;;;7.93;2.17;;;;;;;16.34;73.45;100801.00;4991105;28;20034;-74
2021/08/16 06:11:37;;;;;;;11.30;2.53;;;;;;;16.40;73.76;100788.16;5003295;28;20034;-73
2021/08/16 06:14:03;;;;;;;10.13;2.70;;;;;;;16.37;73.75;100791.97;5002606;28;20653;-72
2021/08/16 06:16:28;;;;;;;9.40;3.08;;;;;;;16.48;73.33;100786.19;4999288;28;20039;-73
2021/08/16 06:18:53;;;;;;;13.57;2.40;;;;;;;16.53;73.56;100789.00;4997451;28;20026;-74
2021/08/16 06:21:19;;;;;;;13.65;2.45;;;;;;;16.48;73.79;100780.13;5008326;28;20042;-75
2021/08/16 06:23:45;;;;;;;12.27;3.40;;;;;;;16.57;73.67;100792.03;5010066;28;20220;-74
2021/08/16 06:26:11;;;;;;;15.15;2.88;;;;;;;16.51;73.49;100780.53;4991934;28;20092;-73
2021/08/16 06:28:36;;;;;;;15.32;3.42;;;;;;;16.62;73.08;100778.38;5002146;28;20029;-74
2021/08/16 06:31:03;;;;;;;14.52;3.42;;;;;;;16.85;72.28;100767.59;4972794;28;20816;-72
2021/08/16 06:33:29;;;;;;;12.00;3.38;;;;;;;16.96;72.26;100774.06;5015637;28;20120;-73
2021/08/16 06:35:54;;;;;;;10.70;2.28;;;;;;;17.30;71.54;100767.88;4984970;28;20029;-74
2021/08/16 06:38:22;;;;;;;16.27;3.60;;;;;;;17.30;70.84;100765.25;4989275;28;20028;-76
2021/08/16 06:40:49;;;;;;;13.73;3.30;;;;;;;17.42;70.95;100760.19;5006205;28;20494;-73
2021/08/16 06:43:15;;;;;;;11.82;3.13;;;;;;;17.59;70.26;100757.97;5002837;28;20124;-74
2021/08/16 06:45:40;;;;;;;16.30;3.15;;;;;;;17.59;69.74;100750.09;5012612;28;20468;-76
2021/08/16 06:48:06;;;;;;;12.10;2.45;;;;;;;17.58;70.25;100759.78;5022565;28;20026;-73
2021/08/16 06:50:32;;;;;;;16.33;5.03;;;;;;;17.62;69.91;100752.34;4992866;28;20044;-74
2021/08/16 06:52:57;;;;;;;18.75;3.67;;;;;;;17.72;69.71;100763.19;4979399;28;20026;-76
2021/08/16 06:55:23;;;;;;;15.18;2.67;;;;;;;17.71;69.50;100762.41;5009404;28;20046;-73
2021/08/16 06:57:48;;;;;;;12.48;2.55;;;;;;;17.54;70.00;100753.34;4998579;28;20527;-74
2021/08/16 07:00:15;;;;;;;10.50;2.45;;;;;;;17.55;70.30;100754.16;4991148;28;20036;-73
2021/08/16 07:02:40;;;;;;;12.07;2.97;;;;;;;17.58;70.14;100744.06;5008773;28;20022;-73
2021/08/16 07:05:07;;;;;;;13.90;3.40;;;;;;;17.66;70.46;100751.72;4988577;28;20429;-74
2021/08/16 07:07:33;;;;;;;13.05;3.47;;;;;;;17.73;70.11;100761.41;4995372;28;20030;-74
2021/08/16 07:09:58;;;;;;;11.40;3.65;;;;;;;17.69;70.22;100764.41;5006807;28;20030;-74
2021/08/16 07:12:24;;;;;;;8.88;2.85;;;;;;;17.75;69.83;100762.00;5006802;28;20447;-73
2021/08/16 07:14:50;;;;;;;9.63;3.13;;;;;;;18.00;69.50;100762.19;4982259;28;20049;-72
2021/08/16 07:17:15;;;;;;;16.80;3.97;;;;;;;18.24;69.39;100763.31;4997388;28;20026;-77
2021/08/16 07:19:41;;;;;;;11.95;3.00;;;;;;;18.27;68.59;100763.72;4973581;28;20514;-74
2021/08/16 07:22:06;;;;;;;13.43;2.92;;;;;;;18.03;69.00;100786.19;4994701;28;20399;-73
2021/08/16 07:24:32;;;;;;;23.88;3.75;;;;;;;17.83;69.76;100783.56;4972134;28;20029;-73
2021/08/16 07:26:57;;;;;;;9.85;2.95;;;;;;;17.77;69.35;100780.97;5006614;28;20096;-74
2021/08/16 07:29:25;;;;;;;12.82;3.40;;;;;;;17.68;70.43;100791.63;4989698;28;20034;-73
2021/08/16 07:31:51;;;;;;;17.13;4.10;;;;;;;17.68;70.10;100791.63;5000695;28;20069;-75
2021/08/16 07:34:16;;;;;;;11.90;3.20;;;;;;;17.62;70.18;100784.59;5009746;28;20046;-75
2021/08/16 07:36:41;;;;;;;8.15;2.95;;;;;;;17.58;70.33;100791.25;5008562;28;20030;-74
2021/08/16 07:39:07;;;;;;;12.73;3.45;;;;;;;17.59;70.62;100784.19;4986599;28;20503;-76
2021/08/16 07:41:32;;;;;;;8.02;2.47;;;;;;;17.57;70.58;100784.38;4999165;28;20037;-74
2021/08/16 07:43:58;;;;;;;14.25;3.15;;;;;;;17.58;71.24;100786.00;4996794;28;20033;-75
2021/08/16 07:46:23;;;;;;;11.10;2.83;;;;;;;17.68;70.84;100782.97;5000825;28;20038;-73
2021/08/16 07:48:49;;;;;;;13.10;3.42;;;;;;;17.62;71.24;100784.59;5006205;28;20029;-74
2021/08/16 07:51:14;;;;;;;10.35;2.70;;;;;;;17.51;71.29;100791.25;4994160;28;20037;-74
2021/08/16 07:53:46;;;;;;;10.85;2.60;;;;;;;17.71;71.05;100791.25;5008413;28;20037;-74
2021/08/16 07:56:11;;;;;;;12.70;2.78;;;;;;;17.74;70.92;100789.22;5000875;28;20044;-73
2021/08/16 07:58:37;;;;;;;7.78;2.28;;;;;;;17.70;71.08;100784.38;4982623;28;20022;-74
2021/08/16 08:01:02;;;;;;;12.98;3.03;;;;;;;17.74;71.38;100784.78;4984644;28;20078;-74
2021/08/16 08:03:29;;;;;;;8.25;2.50;;;;;;;17.82;70.77;100783.75;4987917;28;20065;-73
2021/08/16 08:05:55;;;;;;;8.55;2.28;;;;;;;17.87;71.11;100789.22;5004714;28;20033;-74
2021/08/16 08:08:21;;;;;;;9.48;2.60;;;;;;;17.94;71.06;100781.38;4982918;28;20032;-72
2021/08/16 08:10:46;;;;;;;15.15;2.45;;;;;;;18.02;71.00;100773.25;4995952;28;20044;-74
2021/08/16 08:13:13;;;;;;;10.65;3.08;;;;;;;18.21;70.19;100780.25;4987656;28;20029;-74
2021/08/16 08:15:39;;;;;;;11.80;1.90;;;;;;;18.34;69.59;100768.91;4999872;28;20204;-74
2021/08/16 08:18:05;;;;;;;11.93;2.65;;;;;;;18.45;69.27;100780.59;4992870;28;20029;-77
2021/08/16 08:20:32;;;;;;;13.68;3.28;;;;;;;18.49;69.00;100777.34;5013385;28;20037;-74
2021/08/16 08:22:58;;;;;;;11.98;2.50;;;;;;;18.57;69.72;100786.00;5001636;28;20025;-73
2021/08/16 08:25:25;;;;;;;11.30;3.53;;;;;;;18.57;68.51;100778.94;4984592;28;20369;-73
2021/08/16 08:27:50;;;;;;;14.48;2.60;;;;;;;18.58;68.77;100791.03;4989922;28;20080;-73
2021/08/16 08:30:16;;;;;;;6.88;2.20;;;;;;;18.42;69.09;100776.56;4983989;28;20480;-75
2021/08/16 08:32:50;;;;;;;12.63;2.45;;;;;;;18.38;69.92;100777.19;4989587;28;20044;-73
2021/08/16 08:35:16;;;;;;;9.35;2.53;;;;;;;18.35;69.37;100791.53;5005375;28;20041;-74
2021/08/16 08:37:41;;;;;;;9.32;2.60;;;;;;;18.46;69.26;100782.22;4999156;28;20026;-73
2021/08/16 08:40:08;;;;;;;11.85;3.25;;;;;;;18.49;69.06;100785.22;4995539;28;20033;-73
2021/08/16 08:42:33;;;;;;;10.90;2.13;;;;;;;18.67;69.27;100797.66;4973180;28;20323;-73
2021/08/16 08:45:00;;;;;;;12.07;2.38;;;;;;;18.80;68.38;100796.81;5014717;28;20075;-74
2021/08/16 08:47:25;;;;;;;11.40;2.05;;;;;;;18.99;68.47;100794.31;4994867;28;20033;-75
2021/08/16 08:49:51;;;;;;;8.68;2.00;;;;;;;19.05;66.84;100803.97;5022606;28;20028;-74
2021/08/16 08:52:16;;;;;;;9.55;2.42;;;;;;;18.97;67.29;100794.50;5011445;28;20708;-73
2021/08/16 08:54:42;;;;;;;9.10;2.47;;;;;;;18.80;67.99;100791.56;5014739;28;20033;-74
2021/08/16 08:57:16;;;;;;;14.25;2.45;;;;;;;18.82;67.63;100796.63;5009928;28;20055;-74
2021/08/16 08:59:43;;;;;;;7.28;2.15;;;;;;;18.76;68.25;100792.16;5007371;28;20159;-73
2021/08/16 09:02:11;;;;;;;10.70;2.92;;;;;;;18.66;67.83;100796.03;4987649;28;20045;-74
2021/08/16 09:04:37;;;;;;;7.28;2.15;;;;;;;18.73;67.78;100787.34;4989535;28;20041;-74
2021/08/16 09:07:02;;;;;;;9.80;2.60;;;;;;;18.80;67.31;100796.00;4993147;28;20033;-75
2021/08/16 09:09:28;;;;;;;12.30;2.35;;;;;;;18.74;68.07;100792.41;4991583;28;20487;-73
2021/08/16 09:11:53;;;;;;;8.38;2.10;;;;;;;18.99;66.58;100781.97;4975038;28;20030;-75
2021/08/16 09:14:20;;;;;;;9.20;2.38;;;;;;;19.19;67.20;100783.63;4994235;28;20037;-74
2021/08/16 09:16:47;;;;;;;8.23;2.55;;;;;;;19.46;66.83;100781.63;4974912;28;20038;-73
2021/08/16 09:19:24;;;;;;;19.50;4.00;;;;;;;19.85;65.78;100774.41;4987003;28;20034;-75
2021/08/16 09:22:01;;;;;;;7.93;2.05;;;;;;;20.05;64.47;100783.94;4967864;28;20057;-75
2021/08/16 09:24:33;;;;;;;7.13;2.40;;;;;;;19.88;64.12;100773.97;5010016;28;20029;-75
2021/08/16 09:27:08;;;;;;;7.00;2.15;;;;;;;19.73;64.69;100781.41;5010874;28;20073;-75
2021/08/16 09:29:34;;;;;;;11.35;2.40;;;;;;;19.52;65.22;100793.91;4994336;28;20595;-74
2021/08/16 09:32:03;;;;;;;7.25;2.67;;;;;;;19.37;66.52;100794.22;5003663;28;20091;-74
2021/08/16 09:34:37;;;;;;;10.50;2.90;;;;;;;19.28;66.33;100794.72;4986067;28;20045;-76
2021/08/16 09:37:26;;;;;;;15.85;2.25;;;;;;;19.16;67.69;100799.84;4999829;28;20029;-75
2021/08/16 09:40:03;;;;;;;12.57;2.53;;;;;;;19.13;69.18;100797.66;4989364;28;20029;-75
2021/08/16 09:42:40;;;;;;;8.65;3.47;;;;;;;19.10;69.73;100798.88;5006694;28;20049;-74
2021/08/16 09:45:06;;;;;;;13.93;3.35;;;;;;;18.97;69.67;100807.66;5008038;28;20112;-74
2021/08/16 09:47:42;;;;;;;9.25;2.60;;;;;;;18.84;70.94;100808.53;4982400;28;20772;-73
2021/08/16 09:50:08;;;;;;;9.88;3.38;;;;;;;18.84;72.27;100808.53;5003395;28;20045;-75
2021/08/16 09:52:34;;;;;;;7.40;3.08;;;;;;;18.88;72.45;100810.75;4982165;28;20103;-73
2021/08/16 09:55:00;;;;;;;8.82;3.15;;;;;;;18.79;72.37;100810.94;4994018;28;20184;-74
2021/08/16 09:57:27;;;;;;;11.15;3.17;;;;;;;18.76;72.01;100813.16;4989855;28;20727;-73
2021/08/16 09:59:56;;;;;;;10.32;2.60;;;;;;;18.80;73.15;100815.22;5009667;28;20304;-74
2021/08/16 10:02:22;;;;;;;7.20;2.72;;;;;;;18.67;73.71;100818.66;5018594;28;20098;-74
2021/08/16 10:04:48;;;;;;;9.63;3.05;;;;;;;18.62;73.52;100817.69;5004981;28;20251;-74
2021/08/16 10:07:17;;;;;;;7.60;3.85;;;;;;;18.52;74.40;100833.09;4971253;28;20041;-77
2021/08/16 10:09:43;;;;;;;10.55;2.78;;;;;;;18.44;75.46;100848.06;4996295;28;20048;-72
2021/08/16 10:12:08;;;;;;;13.82;3.90;;;;;;;18.19;77.29;100858.38;5004963;28;20034;-74
2021/08/16 10:14:35;;;;;;;12.88;3.90;;;;;;;17.91;77.82;100863.88;4990427;28;20053;-73
2021/08/16 10:17:03;;;;;;;3.55;2.40;;;;;;;17.71;79.12;100867.28;4989182;28;20026;-74
2021/08/16 10:19:38;;;;;;;8.05;2.60;;;;;;;17.67;78.86;100879.19;4998166;28;20100;-74
2021/08/16 10:22:05;;;;;;;4.53;1.90;;;;;;;17.48;79.48;100891.28;4984457;28;20040;-71
2021/08/16 10:24:30;;;;;;;5.93;1.65;;;;;;;17.33;79.87;100885.41;5001917;28;20026;-74
2021/08/16 10:26:57;;;;;;;7.10;1.90;;;;;;;17.29;79.94;100890.22;5003097;28;20326;-73
2021/08/16 10:29:23;;;;;;;5.10;1.60;;;;;;;17.34;80.69;100891.44;4979925;28;20072;-75
2021/08/16 10:31:52;;;;;;;2.45;1.25;;;;;;;17.29;79.88;100882.38;4989797;28;20030;-73
2021/08/16 10:34:25;;;;;;;2.67;1.40;;;;;;;17.36;80.11;100886.81;4992458;28;20046;-73
2021/08/16 10:37:07;;;;;;;5.70;1.60;;;;;;;17.34;81.01;100886.19;4981039;28;20033;-73
2021/08/16 10:39:37;;;;;;;3.22;1.75;;;;;;;17.31;81.15;100882.16;4975816;28;20635;-75
2021/08/16 10:42:06;;;;;;;3.53;1.77;;;;;;;17.24;81.69;100892.63;4988977;28;20495;-73
2021/08/16 10:44:44;;;;;;;8.02;2.40;;;;;;;17.29;80.76;100890.22;4973372;28;20056;-74
2021/08/16 10:47:11;;;;;;;2.63;2.00;;;;;;;17.25;81.21;100880.31;4990923;28;20041;-73
2021/08/16 10:49:40;;;;;;;5.32;2.70;;;;;;;17.30;82.27;100885.78;4994005;28;20021;-73
2021/08/16 10:52:18;;;;;;;7.38;3.33;;;;;;;17.38;81.85;100890.81;4989233;28;20041;-73
2021/08/16 10:54:43;;;;;;;8.15;3.13;;;;;;;17.50;81.91;100883.22;4993073;28;20375;-73
2021/08/16 10:57:10;;;;;;;7.80;3.53;;;;;;;17.59;82.36;100896.91;4982670;28;20381;-76
2021/08/16 10:59:35;;;;;;;13.18;6.60;;;;;;;17.61;81.65;100885.25;4990310;28;20385;-75
2021/08/16 11:02:01;;;;;;;5.38;3.30;;;;;;;17.55;80.65;100890.47;4997305;28;20036;-72
2021/08/16 11:04:34;;;;;;;7.07;3.72;;;;;;;17.51;81.90;100885.59;4996607;28;20042;-73
2021/08/16 11:07:08;;;;;;;10.35;3.70;;;;;;;17.43;81.30;100896.28;4988061;28;20030;-73
2021/08/16 11:09:39;;;;;;;9.32;3.35;;;;;;;17.40;81.35;100896.69;4992644;28;20033;-73
2021/08/16 11:12:10;;;;;;;8.90;3.95;;;;;;;17.54;81.30;100891.47;5007990;28;20037;-73
2021/08/16 11:14:38;;;;;;;8.82;3.10;;;;;;;17.53;80.40;100893.28;4985803;28;20029;-72
2021/08/16 11:17:04;;;;;;;9.82;3.70;;;;;;;17.37;80.24;100889.22;5001464;28;20143;-73